sensor_id;sensor_type;location;lat;lon;timestamp;pressure;altitude;pressure_sealevel;temperature;humidity
16834;BME280;8533;48.426;10.868;2023-03-13T00:01:23;95780.55;;;6.52;100.00
16834;BME280;8533;48.426;10.868;2023-03-13T00:03:50;95781.86;;;6.52;100.00
16834;BME280;8533;48.426;10.868;2023-03-13T00:06:18;95782.36;;;6.51;100.00
16834;BME280;8533;48.426;10.868;2023-03-13T00:08:45;95783.06;;;6.47;100.00
16834;BME280;8533;48.426;10.868;2023-03-13T00:11:14;95776.34;;;6.48;100.00
16834;BME280;8533;48.426;10.868;2023-03-13T00:13:42;95766.20;;;6.49;100.00
16834;BME280;8533;48.426;10.868;2023-03-13T00:16:12;95768.64;;;6.54;100.00
16834;BME280;8533;48.426;10.868;2023-03-13T00:18:44;95766.90;;;6.57;100.00
16834;BME280;8533;48.426;10.868;2023-03-13T00:21:13;95765.77;;;6.53;100.00
16834;BME280;8533;48.426;10.868;2023-03-13T00:23:40;95766.20;;;6.49;100.00
16834;BME280;8533;48.426;10.868;2023-03-13T00:26:10;95769.84;;;6.48;100.00
16834;BME280;8533;48.426;10.868;2023-03-13T00:28:40;95771.02;;;6.43;100.00
16834;BME280;8533;48.426;10.868;2023-03-13T00:33:47;95762.27;;;6.35;100.00
16834;BME280;8533;48.426;10.868;2023-03-13T00:36:20;95761.89;;;6.29;100.00
16834;BME280;8533;48.426;10.868;2023-03-13T00:38:49;95753.81;;;6.28;100.00
16834;BME280;8533;48.426;10.868;2023-03-13T00:41:19;95753.59;;;6.30;100.00
16834;BME280;8533;48.426;10.868;2023-03-13T00:43:48;95750.94;;;6.27;100.00
16834;BME280;8533;48.426;10.868;2023-03-13T00:46:18;95751.50;;;6.29;100.00
16834;BME280;8533;48.426;10.868;2023-03-13T00:48:46;95744.28;;;6.31;100.00
16834;BME280;8533;48.426;10.868;2023-03-13T00:51:15;95742.34;;;6.27;100.00
16834;BME280;8533;48.426;10.868;2023-03-13T00:53:43;95731.67;;;6.26;100.00
16834;BME280;8533;48.426;10.868;2023-03-13T00:56:16;95736.05;;;6.23;100.00
16834;BME280;8533;48.426;10.868;2023-03-13T00:58:46;95735.70;;;6.19;100.00
16834;BME280;8533;48.426;10.868;2023-03-13T01:01:20;95731.98;;;6.15;100.00
16834;BME280;8533;48.426;10.868;2023-03-13T01:03:53;95734.88;;;6.16;100.00
16834;BME280;8533;48.426;10.868;2023-03-13T01:06:23;95737.18;;;6.15;100.00
16834;BME280;8533;48.426;10.868;2023-03-13T01:08:51;95734.02;;;6.13;100.00
16834;BME280;8533;48.426;10.868;2023-03-13T01:11:21;95736.66;;;6.04;100.00
16834;BME280;8533;48.426;10.868;2023-03-13T01:13:52;95721.21;;;5.97;100.00
16834;BME280;8533;48.426;10.868;2023-03-13T01:16:20;95717.31;;;5.97;100.00
16834;BME280;8533;48.426;10.868;2023-03-13T01:18:56;95723.52;;;5.96;100.00
16834;BME280;8533;48.426;10.868;2023-03-13T01:21:21;95710.95;;;5.91;100.00
16834;BME280;8533;48.426;10.868;2023-03-13T01:23:50;95718.95;;;5.89;100.00
16834;BME280;8533;48.426;10.868;2023-03-13T01:26:18;95710.87;;;5.88;100.00
16834;BME280;8533;48.426;10.868;2023-03-13T01:28:46;95704.30;;;5.86;100.00
16834;BME280;8533;48.426;10.868;2023-03-13T01:31:28;95702.78;;;5.87;100.00
16834;BME280;8533;48.426;10.868;2023-03-13T01:33:49;95696.00;;;5.86;100.00
16834;BME280;8533;48.426;10.868;2023-03-13T01:36:18;95693.50;;;5.89;100.00
16834;BME280;8533;48.426;10.868;2023-03-13T01:38:49;95689.61;;;5.89;100.00
16834;BME280;8533;48.426;10.868;2023-03-13T01:41:18;95690.91;;;5.89;100.00
16834;BME280;8533;48.426;10.868;2023-03-13T01:43:47;95680.72;;;5.87;100.00
16834;BME280;8533;48.426;10.868;2023-03-13T01:46:17;95685.72;;;5.89;100.00
16834;BME280;8533;48.426;10.868;2023-03-13T01:51:52;95684.52;;;5.94;100.00
16834;BME280;8533;48.426;10.868;2023-03-13T01:54:22;95678.79;;;5.92;100.00
16834;BME280;8533;48.426;10.868;2023-03-13T01:57:11;95689.42;;;5.93;100.00
16834;BME280;8533;48.426;10.868;2023-03-13T01:59:39;95684.48;;;5.91;100.00
16834;BME280;8533;48.426;10.868;2023-03-13T02:02:08;95682.21;;;5.95;100.00
16834;BME280;8533;48.426;10.868;2023-03-13T02:04:38;95684.02;;;5.94;100.00
16834;BME280;8533;48.426;10.868;2023-03-13T02:07:14;95683.73;;;5.93;100.00
16834;BME280;8533;48.426;10.868;2023-03-13T02:09:39;95684.59;;;5.96;100.00
16834;BME280;8533;48.426;10.868;2023-03-13T02:12:12;95686.10;;;5.95;100.00
16834;BME280;8533;48.426;10.868;2023-03-13T02:14:42;95682.72;;;5.94;100.00
16834;BME280;8533;48.426;10.868;2023-03-13T02:17:10;95670.81;;;5.96;100.00
16834;BME280;8533;48.426;10.868;2023-03-13T02:19:47;95673.13;;;5.95;100.00
16834;BME280;8533;48.426;10.868;2023-03-13T02:27:45;95668.80;;;5.98;100.00
16834;BME280;8533;48.426;10.868;2023-03-13T02:30:14;95672.05;;;5.93;100.00
16834;BME280;8533;48.426;10.868;2023-03-13T02:32:42;95673.31;;;5.91;100.00
16834;BME280;8533;48.426;10.868;2023-03-13T02:35:14;95666.77;;;5.88;100.00
16834;BME280;8533;48.426;10.868;2023-03-13T02:37:43;95661.45;;;5.95;100.00
16834;BME280;8533;48.426;10.868;2023-03-13T02:40:14;95667.43;;;5.95;100.00
16834;BME280;8533;48.426;10.868;2023-03-13T02:42:44;95664.52;;;5.92;100.00
16834;BME280;8533;48.426;10.868;2023-03-13T02:45:16;95667.36;;;5.93;100.00
16834;BME280;8533;48.426;10.868;2023-03-13T02:47:44;95667.27;;;5.99;100.00
16834;BME280;8533;48.426;10.868;2023-03-13T02:50:12;95664.55;;;6.06;100.00
16834;BME280;8533;48.426;10.868;2023-03-13T02:52:42;95663.91;;;6.13;100.00
16834;BME280;8533;48.426;10.868;2023-03-13T02:55:17;95669.67;;;6.15;100.00
16834;BME280;8533;48.426;10.868;2023-03-13T02:57:45;95667.01;;;6.24;100.00
16834;BME280;8533;48.426;10.868;2023-03-13T03:00:13;95667.27;;;6.25;100.00
16834;BME280;8533;48.426;10.868;2023-03-13T03:02:43;95667.27;;;6.25;100.00
16834;BME280;8533;48.426;10.868;2023-03-13T03:05:11;95666.88;;;6.31;100.00
16834;BME280;8533;48.426;10.868;2023-03-13T03:07:39;95662.28;;;6.35;100.00
16834;BME280;8533;48.426;10.868;2023-03-13T03:10:07;95666.80;;;6.40;100.00
16834;BME280;8533;48.426;10.868;2023-03-13T03:12:35;95661.13;;;6.43;100.00
16834;BME280;8533;48.426;10.868;2023-03-13T03:15:03;95656.28;;;6.46;100.00
16834;BME280;8533;48.426;10.868;2023-03-13T03:17:30;95657.95;;;6.53;100.00
16834;BME280;8533;48.426;10.868;2023-03-13T03:19:57;95652.95;;;6.48;100.00
16834;BME280;8533;48.426;10.868;2023-03-13T03:22:25;95646.20;;;6.50;100.00
16834;BME280;8533;48.426;10.868;2023-03-13T03:24:52;95642.55;;;6.48;100.00
16834;BME280;8533;48.426;10.868;2023-03-13T03:27:20;95644.67;;;6.51;100.00
16834;BME280;8533;48.426;10.868;2023-03-13T03:29:47;95636.14;;;6.54;100.00
16834;BME280;8533;48.426;10.868;2023-03-13T03:32:15;95630.95;;;6.54;100.00
16834;BME280;8533;48.426;10.868;2023-03-13T03:34:42;95625.30;;;6.57;100.00
16834;BME280;8533;48.426;10.868;2023-03-13T03:37:09;95618.52;;;6.56;100.00
16834;BME280;8533;48.426;10.868;2023-03-13T03:39:37;95623.16;;;6.54;100.00
16834;BME280;8533;48.426;10.868;2023-03-13T03:42:04;95613.61;;;6.57;100.00
16834;BME280;8533;48.426;10.868;2023-03-13T03:44:32;95611.75;;;6.55;100.00
16834;BME280;8533;48.426;10.868;2023-03-13T03:46:59;95613.78;;;6.53;100.00
16834;BME280;8533;48.426;10.868;2023-03-13T03:52:03;95597.81;;;6.61;100.00
16834;BME280;8533;48.426;10.868;2023-03-13T03:54:30;95598.05;;;6.59;100.00
16834;BME280;8533;48.426;10.868;2023-03-13T03:56:58;95592.91;;;6.62;100.00
16834;BME280;8533;48.426;10.868;2023-03-13T03:59:25;95593.92;;;6.61;100.00
16834;BME280;8533;48.426;10.868;2023-03-13T04:01:52;95593.08;;;6.58;100.00
16834;BME280;8533;48.426;10.868;2023-03-13T04:04:20;95591.52;;;6.57;100.00
16834;BME280;8533;48.426;10.868;2023-03-13T04:06:47;95581.02;;;6.51;100.00
16834;BME280;8533;48.426;10.868;2023-03-13T04:09:15;95579.95;;;6.50;100.00
16834;BME280;8533;48.426;10.868;2023-03-13T04:11:42;95571.88;;;6.49;100.00
16834;BME280;8533;48.426;10.868;2023-03-13T04:14:10;95564.92;;;6.52;100.00
16834;BME280;8533;48.426;10.868;2023-03-13T04:16:37;95565.55;;;6.57;100.00
16834;BME280;8533;48.426;10.868;2023-03-13T04:19:05;95557.70;;;6.54;100.00
16834;BME280;8533;48.426;10.868;2023-03-13T04:21:33;95558.56;;;6.60;100.00
16834;BME280;8533;48.426;10.868;2023-03-13T04:24:00;95558.92;;;6.66;100.00
16834;BME280;8533;48.426;10.868;2023-03-13T04:26:28;95544.68;;;6.68;100.00
16834;BME280;8533;48.426;10.868;2023-03-13T04:28:55;95547.35;;;6.73;100.00
16834;BME280;8533;48.426;10.868;2023-03-13T04:31:22;95546.61;;;6.75;100.00
16834;BME280;8533;48.426;10.868;2023-03-13T04:33:50;95542.84;;;6.83;100.00
16834;BME280;8533;48.426;10.868;2023-03-13T04:36:17;95547.85;;;6.87;100.00
16834;BME280;8533;48.426;10.868;2023-03-13T04:38:45;95551.52;;;6.88;100.00
16834;BME280;8533;48.426;10.868;2023-03-13T04:41:12;95540.80;;;6.85;100.00
16834;BME280;8533;48.426;10.868;2023-03-13T04:43:39;95544.41;;;6.84;100.00
16834;BME280;8533;48.426;10.868;2023-03-13T04:46:07;95543.72;;;6.88;100.00
16834;BME280;8533;48.426;10.868;2023-03-13T04:48:34;95543.72;;;6.88;100.00
16834;BME280;8533;48.426;10.868;2023-03-13T04:51:02;95542.16;;;6.90;100.00
16834;BME280;8533;48.426;10.868;2023-03-13T04:53:30;95535.16;;;6.90;100.00
16834;BME280;8533;48.426;10.868;2023-03-13T04:55:57;95541.14;;;6.91;100.00
16834;BME280;8533;48.426;10.868;2023-03-13T04:58:25;95524.25;;;6.91;100.00
16834;BME280;8533;48.426;10.868;2023-03-13T05:00:53;95544.23;;;6.88;100.00
16834;BME280;8533;48.426;10.868;2023-03-13T05:03:22;95551.66;;;6.82;100.00
16834;BME280;8533;48.426;10.868;2023-03-13T05:05:50;95539.42;;;6.80;100.00
16834;BME280;8533;48.426;10.868;2023-03-13T05:08:18;95537.11;;;6.81;100.00
16834;BME280;8533;48.426;10.868;2023-03-13T05:10:46;95535.02;;;6.80;100.00
16834;BME280;8533;48.426;10.868;2023-03-13T05:13:13;95521.77;;;6.82;100.00
16834;BME280;8533;48.426;10.868;2023-03-13T05:15:41;95503.27;;;6.78;100.00
16834;BME280;8533;48.426;10.868;2023-03-13T05:18:08;95504.87;;;6.82;100.00
16834;BME280;8533;48.426;10.868;2023-03-13T05:20:35;95500.23;;;6.84;100.00
16834;BME280;8533;48.426;10.868;2023-03-13T05:23:03;95478.97;;;6.87;100.00
16834;BME280;8533;48.426;10.868;2023-03-13T05:25:30;95488.53;;;6.84;100.00
16834;BME280;8533;48.426;10.868;2023-03-13T05:27:58;95476.14;;;6.88;100.00
16834;BME280;8533;48.426;10.868;2023-03-13T05:30:25;95476.93;;;6.89;100.00
16834;BME280;8533;48.426;10.868;2023-03-13T05:32:53;95475.75;;;6.99;100.00
16834;BME280;8533;48.426;10.868;2023-03-13T05:35:20;95468.62;;;7.09;100.00
16834;BME280;8533;48.426;10.868;2023-03-13T05:37:48;95467.91;;;7.13;100.00
16834;BME280;8533;48.426;10.868;2023-03-13T05:40:16;95458.81;;;7.13;100.00
16834;BME280;8533;48.426;10.868;2023-03-13T05:42:44;95469.83;;;7.20;100.00
16834;BME280;8533;48.426;10.868;2023-03-13T05:45:11;95458.91;;;7.21;100.00
16834;BME280;8533;48.426;10.868;2023-03-13T05:47:39;95452.15;;;7.22;100.00
16834;BME280;8533;48.426;10.868;2023-03-13T05:50:08;95450.70;;;7.29;100.00
16834;BME280;8533;48.426;10.868;2023-03-13T05:52:35;95455.73;;;7.38;100.00
16834;BME280;8533;48.426;10.868;2023-03-13T05:55:03;95452.56;;;7.55;100.00
16834;BME280;8533;48.426;10.868;2023-03-13T05:57:30;95453.44;;;7.63;100.00
16834;BME280;8533;48.426;10.868;2023-03-13T05:59:57;95457.33;;;7.61;100.00
16834;BME280;8533;48.426;10.868;2023-03-13T06:02:25;95447.02;;;7.71;100.00
16834;BME280;8533;48.426;10.868;2023-03-13T06:04:52;95456.47;;;7.77;100.00
16834;BME280;8533;48.426;10.868;2023-03-13T06:07:20;95447.48;;;7.90;100.00
16834;BME280;8533;48.426;10.868;2023-03-13T06:09:47;95454.39;;;8.03;100.00
16834;BME280;8533;48.426;10.868;2023-03-13T06:12:15;95456.55;;;8.09;100.00
16834;BME280;8533;48.426;10.868;2023-03-13T06:14:42;95463.88;;;8.15;100.00
16834;BME280;8533;48.426;10.868;2023-03-13T06:17:09;95466.80;;;8.21;100.00
16834;BME280;8533;48.426;10.868;2023-03-13T06:19:37;95458.54;;;8.26;100.00
16834;BME280;8533;48.426;10.868;2023-03-13T06:22:04;95453.81;;;8.23;100.00
16834;BME280;8533;48.426;10.868;2023-03-13T06:24:32;95455.42;;;8.27;100.00
16834;BME280;8533;48.426;10.868;2023-03-13T06:26:59;95461.94;;;8.29;100.00
16834;BME280;8533;48.426;10.868;2023-03-13T06:29:27;95457.06;;;8.33;100.00
16834;BME280;8533;48.426;10.868;2023-03-13T06:31:54;95449.55;;;8.39;100.00
16834;BME280;8533;48.426;10.868;2023-03-13T06:34:21;95442.77;;;8.38;100.00
16834;BME280;8533;48.426;10.868;2023-03-13T06:36:49;95430.58;;;8.46;100.00
16834;BME280;8533;48.426;10.868;2023-03-13T06:39:16;95428.55;;;8.53;100.00
16834;BME280;8533;48.426;10.868;2023-03-13T06:41:44;95432.00;;;8.61;100.00
16834;BME280;8533;48.426;10.868;2023-03-13T06:44:11;95439.09;;;8.68;100.00
16834;BME280;8533;48.426;10.868;2023-03-13T06:46:39;95441.77;;;8.78;100.00
16834;BME280;8533;48.426;10.868;2023-03-13T06:49:06;95442.59;;;8.82;100.00
16834;BME280;8533;48.426;10.868;2023-03-13T06:51:34;95447.03;;;8.86;100.00
16834;BME280;8533;48.426;10.868;2023-03-13T06:54:02;95448.37;;;8.89;100.00
16834;BME280;8533;48.426;10.868;2023-03-13T06:56:29;95456.98;;;8.89;100.00
16834;BME280;8533;48.426;10.868;2023-03-13T06:58:57;95443.10;;;8.81;100.00
16834;BME280;8533;48.426;10.868;2023-03-13T07:01:24;95448.56;;;8.79;100.00
16834;BME280;8533;48.426;10.868;2023-03-13T07:03:52;95443.37;;;8.82;100.00
16834;BME280;8533;48.426;10.868;2023-03-13T07:06:19;95439.41;;;8.77;100.00
16834;BME280;8533;48.426;10.868;2023-03-13T07:08:47;95434.22;;;8.79;100.00
16834;BME280;8533;48.426;10.868;2023-03-13T07:11:15;95439.46;;;8.82;100.00
16834;BME280;8533;48.426;10.868;2023-03-13T07:13:42;95451.46;;;8.86;100.00
16834;BME280;8533;48.426;10.868;2023-03-13T07:16:12;95455.70;;;8.92;100.00
16834;BME280;8533;48.426;10.868;2023-03-13T07:18:39;95449.47;;;9.00;100.00
16834;BME280;8533;48.426;10.868;2023-03-13T07:21:13;95441.17;;;9.06;100.00
16834;BME280;8533;48.426;10.868;2023-03-13T07:23:40;95434.18;;;9.14;100.00
16834;BME280;8533;48.426;10.868;2023-03-13T07:26:10;95425.31;;;9.17;100.00
16834;BME280;8533;48.426;10.868;2023-03-13T07:28:39;95428.75;;;9.23;100.00
16834;BME280;8533;48.426;10.868;2023-03-13T07:31:11;95428.30;;;9.39;100.00
16834;BME280;8533;48.426;10.868;2023-03-13T07:33:40;95425.20;;;9.47;100.00
16834;BME280;8533;48.426;10.868;2023-03-13T07:36:08;95427.55;;;9.51;100.00
16834;BME280;8533;48.426;10.868;2023-03-13T07:38:35;95428.91;;;9.61;100.00
16834;BME280;8533;48.426;10.868;2023-03-13T07:41:04;95429.69;;;9.56;100.00
16834;BME280;8533;48.426;10.868;2023-03-13T07:43:32;95426.50;;;9.49;100.00
16834;BME280;8533;48.426;10.868;2023-03-13T07:46:02;95419.17;;;9.44;100.00
16834;BME280;8533;48.426;10.868;2023-03-13T07:48:32;95421.76;;;9.36;100.00
16834;BME280;8533;48.426;10.868;2023-03-13T07:51:00;95424.58;;;9.27;100.00
16834;BME280;8533;48.426;10.868;2023-03-13T07:53:28;95419.92;;;9.32;100.00
16834;BME280;8533;48.426;10.868;2023-03-13T07:56:02;95414.95;;;9.33;100.00
16834;BME280;8533;48.426;10.868;2023-03-13T07:58:33;95429.59;;;9.41;100.00
16834;BME280;8533;48.426;10.868;2023-03-13T08:01:13;95428.07;;;9.50;100.00
16834;BME280;8533;48.426;10.868;2023-03-13T08:03:40;95437.80;;;9.63;100.00
16834;BME280;8533;48.426;10.868;2023-03-13T08:06:13;95440.19;;;9.77;100.00
16834;BME280;8533;48.426;10.868;2023-03-13T08:08:42;95448.06;;;9.87;100.00
16834;BME280;8533;48.426;10.868;2023-03-13T08:11:12;95446.23;;;9.98;100.00
16834;BME280;8533;48.426;10.868;2023-03-13T08:13:41;95446.81;;;10.12;100.00
16834;BME280;8533;48.426;10.868;2023-03-13T08:16:13;95442.41;;;10.25;100.00
16834;BME280;8533;48.426;10.868;2023-03-13T08:18:43;95433.02;;;10.50;100.00
16834;BME280;8533;48.426;10.868;2023-03-13T08:21:13;95436.95;;;10.75;100.00
16834;BME280;8533;48.426;10.868;2023-03-13T08:23:41;95434.34;;;10.78;100.00
16834;BME280;8533;48.426;10.868;2023-03-13T08:26:17;95431.14;;;11.03;100.00
16834;BME280;8533;48.426;10.868;2023-03-13T08:28:45;95425.11;;;11.16;100.00
16834;BME280;8533;48.426;10.868;2023-03-13T08:31:16;95415.95;;;11.16;100.00
16834;BME280;8533;48.426;10.868;2023-03-13T08:33:46;95418.03;;;11.14;100.00
16834;BME280;8533;48.426;10.868;2023-03-13T08:36:19;95414.92;;;11.09;100.00
16834;BME280;8533;48.426;10.868;2023-03-13T08:38:47;95414.89;;;11.12;100.00
16834;BME280;8533;48.426;10.868;2023-03-13T08:41:17;95412.80;;;11.14;100.00
16834;BME280;8533;48.426;10.868;2023-03-13T08:43:47;95413.05;;;11.25;100.00
16834;BME280;8533;48.426;10.868;2023-03-13T08:46:15;95406.77;;;11.26;100.00
16834;BME280;8533;48.426;10.868;2023-03-13T08:48:42;95399.38;;;11.38;100.00
16834;BME280;8533;48.426;10.868;2023-03-13T08:51:13;95407.43;;;11.54;100.00
16834;BME280;8533;48.426;10.868;2023-03-13T08:53:42;95412.89;;;11.63;100.00
16834;BME280;8533;48.426;10.868;2023-03-13T08:56:12;95399.05;;;11.55;99.37
16834;BME280;8533;48.426;10.868;2023-03-13T08:58:41;95394.56;;;11.60;100.00
16834;BME280;8533;48.426;10.868;2023-03-13T09:01:13;95403.20;;;11.61;99.12
16834;BME280;8533;48.426;10.868;2023-03-13T09:03:42;95402.06;;;11.87;98.95
16834;BME280;8533;48.426;10.868;2023-03-13T09:06:11;95397.29;;;12.36;95.99
16834;BME280;8533;48.426;10.868;2023-03-13T09:08:42;95383.11;;;12.71;93.11
16834;BME280;8533;48.426;10.868;2023-03-13T09:11:16;95386.44;;;13.31;89.89
16834;BME280;8533;48.426;10.868;2023-03-13T09:13:42;95382.20;;;13.78;86.37
16834;BME280;8533;48.426;10.868;2023-03-13T09:16:17;95382.19;;;14.34;81.77
16834;BME280;8533;48.426;10.868;2023-03-13T09:18:42;95375.17;;;14.46;80.69
16834;BME280;8533;48.426;10.868;2023-03-13T09:21:15;95373.67;;;14.88;77.79
16834;BME280;8533;48.426;10.868;2023-03-13T09:23:43;95375.47;;;14.26;79.37
16834;BME280;8533;48.426;10.868;2023-03-13T09:26:12;95372.34;;;14.24;80.72
16834;BME280;8533;48.426;10.868;2023-03-13T09:28:40;95372.25;;;14.29;80.61
16834;BME280;8533;48.426;10.868;2023-03-13T09:31:13;95357.88;;;14.24;81.54
16834;BME280;8533;48.426;10.868;2023-03-13T09:33:42;95366.34;;;14.37;80.73
16834;BME280;8533;48.426;10.868;2023-03-13T09:36:10;95358.19;;;14.36;79.62
16834;BME280;8533;48.426;10.868;2023-03-13T09:38:40;95351.77;;;14.44;80.31
16834;BME280;8533;48.426;10.868;2023-03-13T09:44:01;95340.95;;;13.76;81.60
16834;BME280;8533;48.426;10.868;2023-03-13T09:46:32;95344.09;;;13.78;81.77
16834;BME280;8533;48.426;10.868;2023-03-13T09:49:06;95336.48;;;14.46;80.50
16834;BME280;8533;48.426;10.868;2023-03-13T09:51:35;95331.63;;;14.54;78.81
16834;BME280;8533;48.426;10.868;2023-03-13T09:54:08;95329.36;;;14.63;76.18
16834;BME280;8533;48.426;10.868;2023-03-13T09:56:50;95320.86;;;14.96;74.33
16834;BME280;8533;48.426;10.868;2023-03-13T10:01:54;95315.08;;;15.62;70.02
16834;BME280;8533;48.426;10.868;2023-03-13T10:04:41;95322.70;;;15.37;69.36
16834;BME280;8533;48.426;10.868;2023-03-13T10:07:11;95322.81;;;15.32;70.75
16834;BME280;8533;48.426;10.868;2023-03-13T10:09:36;95307.27;;;15.57;70.38
16834;BME280;8533;48.426;10.868;2023-03-13T10:12:23;95304.37;;;15.70;68.13
16834;BME280;8533;48.426;10.868;2023-03-13T10:17:39;95313.48;;;15.37;70.19
16834;BME280;8533;48.426;10.868;2023-03-13T10:20:27;95289.60;;;15.44;69.45
16834;BME280;8533;48.426;10.868;2023-03-13T10:23:09;95300.84;;;15.36;68.79
16834;BME280;8533;48.426;10.868;2023-03-13T10:25:35;95298.98;;;15.37;67.89
16834;BME280;8533;48.426;10.868;2023-03-13T10:28:09;95302.85;;;15.28;69.88
16834;BME280;8533;48.426;10.868;2023-03-13T10:30:36;95295.72;;;15.56;69.58
16834;BME280;8533;48.426;10.868;2023-03-13T10:35:40;95287.32;;;15.54;68.04
16834;BME280;8533;48.426;10.868;2023-03-13T10:38:22;95290.08;;;15.60;69.01
16834;BME280;8533;48.426;10.868;2023-03-13T10:40:42;95281.82;;;15.50;69.02
16834;BME280;8533;48.426;10.868;2023-03-13T10:43:21;95286.33;;;15.75;67.53
16834;BME280;8533;48.426;10.868;2023-03-13T10:45:45;95301.31;;;15.77;67.45
16834;BME280;8533;48.426;10.868;2023-03-13T10:48:15;95293.11;;;15.78;67.47
16834;BME280;8533;48.426;10.868;2023-03-13T10:50:52;95295.50;;;16.22;67.16
16834;BME280;8533;48.426;10.868;2023-03-13T10:56:11;95300.25;;;16.33;64.69
16834;BME280;8533;48.426;10.868;2023-03-13T11:01:14;95294.55;;;16.82;64.12
16834;BME280;8533;48.426;10.868;2023-03-13T11:03:43;95287.73;;;17.09;62.85
16834;BME280;8533;48.426;10.868;2023-03-13T11:06:31;95286.35;;;17.21;61.32
16834;BME280;8533;48.426;10.868;2023-03-13T11:11:52;95275.53;;;17.48;61.00
16834;BME280;8533;48.426;10.868;2023-03-13T11:14:19;95266.72;;;17.33;61.21
16834;BME280;8533;48.426;10.868;2023-03-13T11:16:53;95270.23;;;17.02;61.71
16834;BME280;8533;48.426;10.868;2023-03-13T11:19:38;95280.94;;;17.26;62.32
16834;BME280;8533;48.426;10.868;2023-03-13T11:35:00;95266.94;;;17.71;61.56
16834;BME280;8533;48.426;10.868;2023-03-13T11:37:31;95279.69;;;17.69;61.01
16834;BME280;8533;48.426;10.868;2023-03-13T11:40:21;95261.16;;;18.03;60.04
16834;BME280;8533;48.426;10.868;2023-03-13T11:42:56;95272.45;;;18.15;59.75
16834;BME280;8533;48.426;10.868;2023-03-13T11:48:30;95251.12;;;18.43;58.35
16834;BME280;8533;48.426;10.868;2023-03-13T11:51:07;95250.63;;;18.58;57.87
16834;BME280;8533;48.426;10.868;2023-03-13T11:53:55;95246.75;;;18.94;56.66
16834;BME280;8533;48.426;10.868;2023-03-13T11:56:34;95238.94;;;18.51;57.63
16834;BME280;8533;48.426;10.868;2023-03-13T12:04:55;95231.59;;;18.33;59.23
16834;BME280;8533;48.426;10.868;2023-03-13T12:07:31;95226.53;;;18.34;59.40
16834;BME280;8533;48.426;10.868;2023-03-13T12:09:59;95224.69;;;18.49;58.57
16834;BME280;8533;48.426;10.868;2023-03-13T12:12:46;95214.95;;;18.79;58.33
16834;BME280;8533;48.426;10.868;2023-03-13T12:18:37;95215.03;;;19.21;56.74
16834;BME280;8533;48.426;10.868;2023-03-13T12:20:51;95218.61;;;19.31;56.21
16834;BME280;8533;48.426;10.868;2023-03-13T12:26:19;95212.52;;;19.60;55.33
16834;BME280;8533;48.426;10.868;2023-03-13T12:31:41;95199.20;;;19.80;53.63
16834;BME280;8533;48.426;10.868;2023-03-13T12:36:47;95186.53;;;19.59;54.51
16834;BME280;8533;48.426;10.868;2023-03-13T12:41:56;95169.64;;;20.42;52.82
16834;BME280;8533;48.426;10.868;2023-03-13T12:44:20;95163.22;;;20.91;51.65
16834;BME280;8533;48.426;10.868;2023-03-13T12:47:04;95162.09;;;20.86;50.96
16834;BME280;8533;48.426;10.868;2023-03-13T12:49:30;95151.92;;;20.40;52.20
16834;BME280;8533;48.426;10.868;2023-03-13T13:00:16;95136.41;;;20.36;52.27
16834;BME280;8533;48.426;10.868;2023-03-13T13:02:46;95130.64;;;20.88;51.27
16834;BME280;8533;48.426;10.868;2023-03-13T13:05:20;95123.55;;;20.86;51.76
16834;BME280;8533;48.426;10.868;2023-03-13T13:07:54;95119.02;;;20.69;51.75
16834;BME280;8533;48.426;10.868;2023-03-13T13:10:24;95107.89;;;21.03;50.73
16834;BME280;8533;48.426;10.868;2023-03-13T13:16:05;95097.98;;;20.70;50.89
16834;BME280;8533;48.426;10.868;2023-03-13T13:18:34;95093.65;;;20.77;51.73
16834;BME280;8533;48.426;10.868;2023-03-13T13:23:37;95069.47;;;20.94;50.09
16834;BME280;8533;48.426;10.868;2023-03-13T13:28:59;95051.81;;;20.74;50.35
16834;BME280;8533;48.426;10.868;2023-03-13T13:37:02;95038.44;;;19.92;52.18
16834;BME280;8533;48.426;10.868;2023-03-13T13:39:45;95031.46;;;20.11;51.74
16834;BME280;8533;48.426;10.868;2023-03-13T13:47:46;95023.27;;;19.68;53.67
16834;BME280;8533;48.426;10.868;2023-03-13T13:50:22;95013.07;;;19.58;53.85
16834;BME280;8533;48.426;10.868;2023-03-13T13:52:49;94995.21;;;19.01;55.27
16834;BME280;8533;48.426;10.868;2023-03-13T13:55:32;94997.06;;;18.94;55.29
16834;BME280;8533;48.426;10.868;2023-03-13T13:58:20;94988.58;;;19.01;54.54
16834;BME280;8533;48.426;10.868;2023-03-13T14:03:21;94985.87;;;19.22;53.82
16834;BME280;8533;48.426;10.868;2023-03-13T14:05:50;94981.70;;;19.27;53.99
16834;BME280;8533;48.426;10.868;2023-03-13T14:08:35;94970.13;;;19.37;54.21
16834;BME280;8533;48.426;10.868;2023-03-13T14:11:21;94965.61;;;19.44;53.62
16834;BME280;8533;48.426;10.868;2023-03-13T14:16:38;94952.31;;;19.38;53.99
16834;BME280;8533;48.426;10.868;2023-03-13T14:22:06;94937.41;;;19.33;54.81
16834;BME280;8533;48.426;10.868;2023-03-13T14:24:34;94931.16;;;19.56;54.53
16834;BME280;8533;48.426;10.868;2023-03-13T14:27:23;94927.06;;;19.65;54.38
16834;BME280;8533;48.426;10.868;2023-03-13T14:29:32;94930.35;;;19.43;54.01
16834;BME280;8533;48.426;10.868;2023-03-13T14:31:59;94912.44;;;19.40;53.39
16834;BME280;8533;48.426;10.868;2023-03-13T14:34:27;94896.88;;;19.45;53.37
16834;BME280;8533;48.426;10.868;2023-03-13T14:37:01;94899.33;;;19.50;54.15
16834;BME280;8533;48.426;10.868;2023-03-13T14:39:36;94896.55;;;19.65;53.35
16834;BME280;8533;48.426;10.868;2023-03-13T14:42:14;94882.40;;;19.55;53.48
16834;BME280;8533;48.426;10.868;2023-03-13T14:44:34;94890.57;;;19.37;54.13
16834;BME280;8533;48.426;10.868;2023-03-13T14:47:06;94889.22;;;19.25;53.90
16834;BME280;8533;48.426;10.868;2023-03-13T14:49:35;94883.66;;;19.06;54.64
16834;BME280;8533;48.426;10.868;2023-03-13T14:52:05;94872.64;;;19.04;54.57
16834;BME280;8533;48.426;10.868;2023-03-13T14:54:36;94863.45;;;18.95;54.98
16834;BME280;8533;48.426;10.868;2023-03-13T14:59:37;94856.34;;;18.75;54.98
16834;BME280;8533;48.426;10.868;2023-03-13T15:02:18;94848.69;;;18.61;55.27